sensor_id;sensor_type;location;lat;lon;timestamp;temperature;humidity
77613;DHT22;66777;52.282;5.960;2023-04-30T00:00:23;6.00;80.90
77613;DHT22;66777;52.282;5.960;2023-04-30T00:02:49;5.90;81.10
77613;DHT22;66777;52.282;5.960;2023-04-30T00:05:15;5.80;80.70
77613;DHT22;66777;52.282;5.960;2023-04-30T00:07:41;5.80;80.60
77613;DHT22;66777;52.282;5.960;2023-04-30T00:10:09;5.60;81.20
77613;DHT22;66777;52.282;5.960;2023-04-30T00:12:36;5.60;81.50
77613;DHT22;66777;52.282;5.960;2023-04-30T00:15:04;5.60;81.50
77613;DHT22;66777;52.282;5.960;2023-04-30T00:17:30;5.50;81.20
77613;DHT22;66777;52.282;5.960;2023-04-30T00:19:56;5.50;81.40
77613;DHT22;66777;52.282;5.960;2023-04-30T00:22:22;5.40;81.60
77613;DHT22;66777;52.282;5.960;2023-04-30T00:24:48;5.40;81.70
77613;DHT22;66777;52.282;5.960;2023-04-30T00:27:14;5.40;81.80
77613;DHT22;66777;52.282;5.960;2023-04-30T00:29:41;5.30;81.80
77613;DHT22;66777;52.282;5.960;2023-04-30T00:32:06;5.30;81.70
77613;DHT22;66777;52.282;5.960;2023-04-30T00:34:32;5.30;81.60
77613;DHT22;66777;52.282;5.960;2023-04-30T00:36:57;5.30;81.40
77613;DHT22;66777;52.282;5.960;2023-04-30T00:39:24;5.20;81.20
77613;DHT22;66777;52.282;5.960;2023-04-30T00:41:52;5.10;81.70
77613;DHT22;66777;52.282;5.960;2023-04-30T00:44:18;5.10;81.80
77613;DHT22;66777;52.282;5.960;2023-04-30T00:46:45;5.00;81.90
77613;DHT22;66777;52.282;5.960;2023-04-30T00:49:11;5.10;81.90
77613;DHT22;66777;52.282;5.960;2023-04-30T00:51:39;5.00;81.90
77613;DHT22;66777;52.282;5.960;2023-04-30T00:54:06;5.00;82.10
77613;DHT22;66777;52.282;5.960;2023-04-30T00:56:32;5.00;82.20
77613;DHT22;66777;52.282;5.960;2023-04-30T00:58:58;5.00;82.40
77613;DHT22;66777;52.282;5.960;2023-04-30T01:01:27;5.00;82.70
77613;DHT22;66777;52.282;5.960;2023-04-30T01:03:56;5.00;82.60
77613;DHT22;66777;52.282;5.960;2023-04-30T01:06:22;4.90;82.50
77613;DHT22;66777;52.282;5.960;2023-04-30T01:08:49;4.90;82.10
77613;DHT22;66777;52.282;5.960;2023-04-30T01:14:06;4.80;82.10
77613;DHT22;66777;52.282;5.960;2023-04-30T01:16:38;4.70;82.10
77613;DHT22;66777;52.282;5.960;2023-04-30T01:19:08;4.70;82.00
77613;DHT22;66777;52.282;5.960;2023-04-30T01:21:38;4.70;81.80
77613;DHT22;66777;52.282;5.960;2023-04-30T01:29:31;4.40;82.00
77613;DHT22;66777;52.282;5.960;2023-04-30T01:31:58;4.40;81.90
77613;DHT22;66777;52.282;5.960;2023-04-30T01:34:24;4.40;82.20
77613;DHT22;66777;52.282;5.960;2023-04-30T01:37:20;4.30;82.30
77613;DHT22;66777;52.282;5.960;2023-04-30T01:39:56;4.20;82.70
77613;DHT22;66777;52.282;5.960;2023-04-30T01:42:29;4.20;82.70
77613;DHT22;66777;52.282;5.960;2023-04-30T01:48:07;4.20;82.70
77613;DHT22;66777;52.282;5.960;2023-04-30T01:50:46;4.20;82.40
77613;DHT22;66777;52.282;5.960;2023-04-30T01:53:37;4.10;82.60
77613;DHT22;66777;52.282;5.960;2023-04-30T01:56:13;4.10;82.40
77613;DHT22;66777;52.282;5.960;2023-04-30T01:58:42;4.00;82.40
77613;DHT22;66777;52.282;5.960;2023-04-30T02:01:28;4.00;82.80
77613;DHT22;66777;52.282;5.960;2023-04-30T02:03:53;4.00;82.90
77613;DHT22;66777;52.282;5.960;2023-04-30T02:06:19;4.00;82.80
77613;DHT22;66777;52.282;5.960;2023-04-30T02:08:45;4.00;82.90
77613;DHT22;66777;52.282;5.960;2023-04-30T02:11:11;4.00;82.90
77613;DHT22;66777;52.282;5.960;2023-04-30T02:13:36;4.00;82.70
77613;DHT22;66777;52.282;5.960;2023-04-30T02:16:02;4.00;82.80
77613;DHT22;66777;52.282;5.960;2023-04-30T02:18:28;4.00;83.00
77613;DHT22;66777;52.282;5.960;2023-04-30T02:20:54;4.00;82.90
77613;DHT22;66777;52.282;5.960;2023-04-30T02:23:19;4.00;82.60
77613;DHT22;66777;52.282;5.960;2023-04-30T02:25:45;4.00;82.80
77613;DHT22;66777;52.282;5.960;2023-04-30T02:28:10;4.00;82.60
77613;DHT22;66777;52.282;5.960;2023-04-30T02:30:36;4.00;82.80
77613;DHT22;66777;52.282;5.960;2023-04-30T02:33:01;3.90;83.00
77613;DHT22;66777;52.282;5.960;2023-04-30T02:35:27;3.90;83.10
77613;DHT22;66777;52.282;5.960;2023-04-30T02:37:53;3.90;83.20
77613;DHT22;66777;52.282;5.960;2023-04-30T02:40:18;3.90;83.30
77613;DHT22;66777;52.282;5.960;2023-04-30T02:42:44;3.90;83.20
77613;DHT22;66777;52.282;5.960;2023-04-30T02:45:10;3.90;83.20
77613;DHT22;66777;52.282;5.960;2023-04-30T02:47:36;3.90;82.90
77613;DHT22;66777;52.282;5.960;2023-04-30T02:50:01;3.90;82.90
77613;DHT22;66777;52.282;5.960;2023-04-30T02:52:27;3.80;82.80
77613;DHT22;66777;52.282;5.960;2023-04-30T02:54:52;3.90;82.90
77613;DHT22;66777;52.282;5.960;2023-04-30T02:57:18;3.90;82.90
77613;DHT22;66777;52.282;5.960;2023-04-30T02:59:43;3.80;82.90
77613;DHT22;66777;52.282;5.960;2023-04-30T03:02:10;3.70;82.70
77613;DHT22;66777;52.282;5.960;2023-04-30T03:04:36;3.70;82.70
77613;DHT22;66777;52.282;5.960;2023-04-30T03:07:02;3.70;82.90
77613;DHT22;66777;52.282;5.960;2023-04-30T03:09:29;3.60;83.00
77613;DHT22;66777;52.282;5.960;2023-04-30T03:11:57;3.60;83.20
77613;DHT22;66777;52.282;5.960;2023-04-30T03:14:23;3.60;83.40
77613;DHT22;66777;52.282;5.960;2023-04-30T03:16:48;3.60;83.50
77613;DHT22;66777;52.282;5.960;2023-04-30T03:19:14;3.60;83.40
77613;DHT22;66777;52.282;5.960;2023-04-30T03:21:39;3.60;83.50
77613;DHT22;66777;52.282;5.960;2023-04-30T03:24:05;3.60;83.60
77613;DHT22;66777;52.282;5.960;2023-04-30T03:26:31;3.60;83.60
77613;DHT22;66777;52.282;5.960;2023-04-30T03:28:57;3.60;83.80
77613;DHT22;66777;52.282;5.960;2023-04-30T03:31:22;3.70;83.80
77613;DHT22;66777;52.282;5.960;2023-04-30T03:33:48;3.70;83.90
77613;DHT22;66777;52.282;5.960;2023-04-30T03:36:13;3.70;84.00
77613;DHT22;66777;52.282;5.960;2023-04-30T03:38:40;3.70;83.80
77613;DHT22;66777;52.282;5.960;2023-04-30T03:41:06;3.70;82.60
77613;DHT22;66777;52.282;5.960;2023-04-30T03:43:32;3.60;83.00
77613;DHT22;66777;52.282;5.960;2023-04-30T03:45:57;3.60;83.00
77613;DHT22;66777;52.282;5.960;2023-04-30T03:48:23;3.50;83.00
77613;DHT22;66777;52.282;5.960;2023-04-30T03:50:49;3.50;82.70
77613;DHT22;66777;52.282;5.960;2023-04-30T03:53:14;3.30;82.80
77613;DHT22;66777;52.282;5.960;2023-04-30T03:55:41;3.30;83.00
77613;DHT22;66777;52.282;5.960;2023-04-30T03:58:06;3.20;82.90
77613;DHT22;66777;52.282;5.960;2023-04-30T04:00:32;3.10;83.00
77613;DHT22;66777;52.282;5.960;2023-04-30T04:02:58;3.10;83.20
77613;DHT22;66777;52.282;5.960;2023-04-30T04:05:23;3.10;83.20
77613;DHT22;66777;52.282;5.960;2023-04-30T04:07:50;3.10;83.40
77613;DHT22;66777;52.282;5.960;2023-04-30T04:10:15;3.00;83.50
77613;DHT22;66777;52.282;5.960;2023-04-30T04:12:41;3.00;83.60
77613;DHT22;66777;52.282;5.960;2023-04-30T04:15:07;3.00;83.70
77613;DHT22;66777;52.282;5.960;2023-04-30T04:17:33;3.10;83.90
77613;DHT22;66777;52.282;5.960;2023-04-30T04:19:58;3.10;84.00
77613;DHT22;66777;52.282;5.960;2023-04-30T04:22:24;3.10;83.90
77613;DHT22;66777;52.282;5.960;2023-04-30T04:24:49;3.20;83.80
77613;DHT22;66777;52.282;5.960;2023-04-30T04:27:15;3.30;83.80
77613;DHT22;66777;52.282;5.960;2023-04-30T04:29:41;3.30;83.90
77613;DHT22;66777;52.282;5.960;2023-04-30T04:32:07;3.40;83.70
77613;DHT22;66777;52.282;5.960;2023-04-30T04:34:34;3.50;83.60
77613;DHT22;66777;52.282;5.960;2023-04-30T04:37:00;3.50;83.20
77613;DHT22;66777;52.282;5.960;2023-04-30T04:39:25;3.50;82.70
77613;DHT22;66777;52.282;5.960;2023-04-30T04:41:51;3.30;82.60
77613;DHT22;66777;52.282;5.960;2023-04-30T04:44:17;3.30;82.40
77613;DHT22;66777;52.282;5.960;2023-04-30T04:46:42;3.30;82.60
77613;DHT22;66777;52.282;5.960;2023-04-30T04:49:08;3.20;82.60
77613;DHT22;66777;52.282;5.960;2023-04-30T04:51:34;3.20;82.70
77613;DHT22;66777;52.282;5.960;2023-04-30T04:54:00;3.30;82.80
77613;DHT22;66777;52.282;5.960;2023-04-30T04:56:25;3.30;83.00
77613;DHT22;66777;52.282;5.960;2023-04-30T04:58:51;3.30;82.90
77613;DHT22;66777;52.282;5.960;2023-04-30T05:01:17;3.40;83.10
77613;DHT22;66777;52.282;5.960;2023-04-30T05:03:43;3.50;83.10
77613;DHT22;66777;52.282;5.960;2023-04-30T05:06:08;3.60;83.00
77613;DHT22;66777;52.282;5.960;2023-04-30T05:08:34;3.70;83.10
77613;DHT22;66777;52.282;5.960;2023-04-30T05:10:59;3.90;83.00
77613;DHT22;66777;52.282;5.960;2023-04-30T05:13:25;3.90;83.10
77613;DHT22;66777;52.282;5.960;2023-04-30T05:15:51;4.00;83.00
77613;DHT22;66777;52.282;5.960;2023-04-30T05:18:17;4.20;83.00
77613;DHT22;66777;52.282;5.960;2023-04-30T05:20:42;4.30;83.10
77613;DHT22;66777;52.282;5.960;2023-04-30T05:23:08;4.40;83.30
77613;DHT22;66777;52.282;5.960;2023-04-30T05:25:35;4.50;83.30
77613;DHT22;66777;52.282;5.960;2023-04-30T05:28:00;4.70;83.40
77613;DHT22;66777;52.282;5.960;2023-04-30T05:30:26;4.70;83.30
77613;DHT22;66777;52.282;5.960;2023-04-30T05:32:52;4.90;83.40
77613;DHT22;66777;52.282;5.960;2023-04-30T05:35:18;5.00;83.30
77613;DHT22;66777;52.282;5.960;2023-04-30T05:37:44;5.10;83.40
77613;DHT22;66777;52.282;5.960;2023-04-30T05:40:10;5.30;83.30
77613;DHT22;66777;52.282;5.960;2023-04-30T05:42:36;5.40;83.20
77613;DHT22;66777;52.282;5.960;2023-04-30T05:45:05;5.50;82.80
77613;DHT22;66777;52.282;5.960;2023-04-30T05:47:31;5.60;83.00
77613;DHT22;66777;52.282;5.960;2023-04-30T05:49:57;5.80;82.80
77613;DHT22;66777;52.282;5.960;2023-04-30T05:52:22;5.90;82.50
77613;DHT22;66777;52.282;5.960;2023-04-30T05:54:48;6.00;82.50
77613;DHT22;66777;52.282;5.960;2023-04-30T05:57:13;6.10;82.30
77613;DHT22;66777;52.282;5.960;2023-04-30T05:59:39;6.20;82.10
77613;DHT22;66777;52.282;5.960;2023-04-30T06:02:06;6.40;81.90
77613;DHT22;66777;52.282;5.960;2023-04-30T06:04:31;6.60;81.50
77613;DHT22;66777;52.282;5.960;2023-04-30T06:06:57;6.70;81.00
77613;DHT22;66777;52.282;5.960;2023-04-30T06:09:22;6.90;80.90
77613;DHT22;66777;52.282;5.960;2023-04-30T06:11:48;7.10;80.70
77613;DHT22;66777;52.282;5.960;2023-04-30T06:14:17;7.20;80.10
77613;DHT22;66777;52.282;5.960;2023-04-30T06:16:43;7.40;80.00
77613;DHT22;66777;52.282;5.960;2023-04-30T06:19:10;7.60;79.70
77613;DHT22;66777;52.282;5.960;2023-04-30T06:21:35;7.90;79.30
77613;DHT22;66777;52.282;5.960;2023-04-30T06:24:02;8.10;78.50
77613;DHT22;66777;52.282;5.960;2023-04-30T06:26:27;8.30;78.20
77613;DHT22;66777;52.282;5.960;2023-04-30T06:28:53;8.60;77.80
77613;DHT22;66777;52.282;5.960;2023-04-30T06:31:18;8.80;77.00
77613;DHT22;66777;52.282;5.960;2023-04-30T06:33:44;9.00;76.20
77613;DHT22;66777;52.282;5.960;2023-04-30T06:36:10;9.20;76.00
77613;DHT22;66777;52.282;5.960;2023-04-30T06:38:35;9.30;76.00
77613;DHT22;66777;52.282;5.960;2023-04-30T06:41:01;9.50;74.90
77613;DHT22;66777;52.282;5.960;2023-04-30T06:43:26;9.70;74.80
77613;DHT22;66777;52.282;5.960;2023-04-30T06:45:52;10.00;73.90
77613;DHT22;66777;52.282;5.960;2023-04-30T06:48:17;10.10;73.30
77613;DHT22;66777;52.282;5.960;2023-04-30T06:50:43;10.20;73.30
77613;DHT22;66777;52.282;5.960;2023-04-30T06:53:13;10.20;73.40
77613;DHT22;66777;52.282;5.960;2023-04-30T06:55:39;10.20;73.00
77613;DHT22;66777;52.282;5.960;2023-04-30T06:58:05;10.30;72.90
77613;DHT22;66777;52.282;5.960;2023-04-30T07:00:31;10.40;72.70
77613;DHT22;66777;52.282;5.960;2023-04-30T07:02:57;10.50;72.20
77613;DHT22;66777;52.282;5.960;2023-04-30T07:05:27;10.60;72.40
77613;DHT22;66777;52.282;5.960;2023-04-30T07:07:52;10.70;72.00
77613;DHT22;66777;52.282;5.960;2023-04-30T07:10:18;10.90;71.60
77613;DHT22;66777;52.282;5.960;2023-04-30T07:12:44;11.10;70.40
77613;DHT22;66777;52.282;5.960;2023-04-30T07:15:09;11.10;70.40
77613;DHT22;66777;52.282;5.960;2023-04-30T07:17:35;11.40;69.60
77613;DHT22;66777;52.282;5.960;2023-04-30T07:20:02;11.40;68.80
77613;DHT22;66777;52.282;5.960;2023-04-30T07:22:29;11.50;68.90
77613;DHT22;66777;52.282;5.960;2023-04-30T07:24:56;11.60;68.70
77613;DHT22;66777;52.282;5.960;2023-04-30T07:27:21;11.70;68.20
77613;DHT22;66777;52.282;5.960;2023-04-30T07:29:47;11.90;67.90
77613;DHT22;66777;52.282;5.960;2023-04-30T07:32:13;12.00;67.80
77613;DHT22;66777;52.282;5.960;2023-04-30T07:34:39;12.20;67.50
77613;DHT22;66777;52.282;5.960;2023-04-30T07:37:05;12.50;67.00
77613;DHT22;66777;52.282;5.960;2023-04-30T07:39:30;12.70;66.20
77613;DHT22;66777;52.282;5.960;2023-04-30T07:41:56;12.80;66.00
77613;DHT22;66777;52.282;5.960;2023-04-30T07:44:21;13.10;64.80
77613;DHT22;66777;52.282;5.960;2023-04-30T07:46:47;13.30;64.50
77613;DHT22;66777;52.282;5.960;2023-04-30T07:49:12;13.60;64.30
77613;DHT22;66777;52.282;5.960;2023-04-30T07:51:38;13.90;63.30
77613;DHT22;66777;52.282;5.960;2023-04-30T07:54:04;14.10;62.80
77613;DHT22;66777;52.282;5.960;2023-04-30T07:56:29;14.30;61.90
77613;DHT22;66777;52.282;5.960;2023-04-30T07:58:55;14.30;62.50
77613;DHT22;66777;52.282;5.960;2023-04-30T08:01:20;14.50;62.00
77613;DHT22;66777;52.282;5.960;2023-04-30T08:03:46;14.50;61.80
77613;DHT22;66777;52.282;5.960;2023-04-30T08:06:11;14.60;60.20
77613;DHT22;66777;52.282;5.960;2023-04-30T08:08:37;14.40;62.00
77613;DHT22;66777;52.282;5.960;2023-04-30T08:11:04;14.40;61.50
77613;DHT22;66777;52.282;5.960;2023-04-30T08:13:29;14.30;60.40
77613;DHT22;66777;52.282;5.960;2023-04-30T08:15:55;14.20;61.30
77613;DHT22;66777;52.282;5.960;2023-04-30T08:18:20;14.10;61.00
77613;DHT22;66777;52.282;5.960;2023-04-30T08:20:46;13.90;62.00
77613;DHT22;66777;52.282;5.960;2023-04-30T08:23:12;14.10;61.60
77613;DHT22;66777;52.282;5.960;2023-04-30T08:25:38;14.30;62.20
77613;DHT22;66777;52.282;5.960;2023-04-30T08:28:05;14.60;60.40
77613;DHT22;66777;52.282;5.960;2023-04-30T08:30:30;14.70;60.50
77613;DHT22;66777;52.282;5.960;2023-04-30T08:32:56;15.10;59.70
77613;DHT22;66777;52.282;5.960;2023-04-30T08:35:22;15.20;59.00
77613;DHT22;66777;52.282;5.960;2023-04-30T08:37:47;15.30;59.00
77613;DHT22;66777;52.282;5.960;2023-04-30T08:40:13;15.30;59.20
77613;DHT22;66777;52.282;5.960;2023-04-30T08:42:45;15.50;57.80
77613;DHT22;66777;52.282;5.960;2023-04-30T08:45:11;15.60;57.60
77613;DHT22;66777;52.282;5.960;2023-04-30T08:47:38;16.10;58.10
77613;DHT22;66777;52.282;5.960;2023-04-30T08:50:07;16.90;56.20
77613;DHT22;66777;52.282;5.960;2023-04-30T08:52:34;17.80;54.10
77613;DHT22;66777;52.282;5.960;2023-04-30T08:55:00;18.10;53.70
77613;DHT22;66777;52.282;5.960;2023-04-30T08:57:26;18.10;53.30
77613;DHT22;66777;52.282;5.960;2023-04-30T08:59:53;17.80;53.20
77613;DHT22;66777;52.282;5.960;2023-04-30T09:02:18;17.40;53.70
77613;DHT22;66777;52.282;5.960;2023-04-30T09:04:45;17.10;53.80
77613;DHT22;66777;52.282;5.960;2023-04-30T09:07:12;16.90;54.70
77613;DHT22;66777;52.282;5.960;2023-04-30T09:09:39;16.70;54.60
77613;DHT22;66777;52.282;5.960;2023-04-30T09:12:15;16.70;55.00
77613;DHT22;66777;52.282;5.960;2023-04-30T09:15:03;16.70;55.00
77613;DHT22;66777;52.282;5.960;2023-04-30T09:17:30;16.90;54.20
77613;DHT22;66777;52.282;5.960;2023-04-30T09:20:12;16.90;53.70
77613;DHT22;66777;52.282;5.960;2023-04-30T09:22:39;16.80;53.20
77613;DHT22;66777;52.282;5.960;2023-04-30T09:25:06;16.80;53.40
77613;DHT22;66777;52.282;5.960;2023-04-30T09:27:32;17.00;54.00
77613;DHT22;66777;52.282;5.960;2023-04-30T09:29:57;16.90;54.30
77613;DHT22;66777;52.282;5.960;2023-04-30T09:32:23;17.20;54.60
77613;DHT22;66777;52.282;5.960;2023-04-30T09:34:49;17.30;54.30
77613;DHT22;66777;52.282;5.960;2023-04-30T09:37:14;17.40;53.30
77613;DHT22;66777;52.282;5.960;2023-04-30T09:39:52;17.90;51.70
77613;DHT22;66777;52.282;5.960;2023-04-30T09:42:21;19.30;48.30
77613;DHT22;66777;52.282;5.960;2023-04-30T09:44:47;20.10;49.10
77613;DHT22;66777;52.282;5.960;2023-04-30T09:47:17;19.70;49.50
77613;DHT22;66777;52.282;5.960;2023-04-30T09:49:49;19.40;49.80
77613;DHT22;66777;52.282;5.960;2023-04-30T09:52:19;19.40;48.80
77613;DHT22;66777;52.282;5.960;2023-04-30T09:54:45;19.00;50.30
77613;DHT22;66777;52.282;5.960;2023-04-30T09:57:13;19.00;50.60
77613;DHT22;66777;52.282;5.960;2023-04-30T09:59:46;18.80;50.70
77613;DHT22;66777;52.282;5.960;2023-04-30T10:02:14;18.90;50.20
77613;DHT22;66777;52.282;5.960;2023-04-30T10:04:48;19.40;50.70
77613;DHT22;66777;52.282;5.960;2023-04-30T10:07:19;21.00;46.50
77613;DHT22;66777;52.282;5.960;2023-04-30T10:09:50;21.50;46.60
77613;DHT22;66777;52.282;5.960;2023-04-30T10:12:26;21.10;47.00
77613;DHT22;66777;52.282;5.960;2023-04-30T10:15:08;20.80;47.50
77613;DHT22;66777;52.282;5.960;2023-04-30T10:17:37;20.50;47.20
77613;DHT22;66777;52.282;5.960;2023-04-30T10:20:08;20.40;47.70
77613;DHT22;66777;52.282;5.960;2023-04-30T10:22:35;20.20;47.90
77613;DHT22;66777;52.282;5.960;2023-04-30T10:25:02;20.30;47.90
77613;DHT22;66777;52.282;5.960;2023-04-30T10:27:28;20.30;47.90
77613;DHT22;66777;52.282;5.960;2023-04-30T10:29:54;20.30;47.70
77613;DHT22;66777;52.282;5.960;2023-04-30T10:32:21;20.40;46.70
77613;DHT22;66777;52.282;5.960;2023-04-30T10:34:57;20.80;46.90
77613;DHT22;66777;52.282;5.960;2023-04-30T10:37:38;22.50;46.10
77613;DHT22;66777;52.282;5.960;2023-04-30T10:40:08;27.00;40.90
77613;DHT22;66777;52.282;5.960;2023-04-30T10:42:34;30.40;36.80
77613;DHT22;66777;52.282;5.960;2023-04-30T10:45:03;33.30;34.50
77613;DHT22;66777;52.282;5.960;2023-04-30T10:47:29;35.30;33.50
77613;DHT22;66777;52.282;5.960;2023-04-30T10:50:02;36.50;31.50
77613;DHT22;66777;52.282;5.960;2023-04-30T10:52:28;37.50;33.20
77613;DHT22;66777;52.282;5.960;2023-04-30T10:54:54;38.50;30.60
77613;DHT22;66777;52.282;5.960;2023-04-30T10:57:20;39.20;29.70
77613;DHT22;66777;52.282;5.960;2023-04-30T11:02:43;40.40;31.10
77613;DHT22;66777;52.282;5.960;2023-04-30T11:05:10;40.80;28.20
77613;DHT22;66777;52.282;5.960;2023-04-30T11:07:36;41.30;28.10
77613;DHT22;66777;52.282;5.960;2023-04-30T11:10:02;41.40;27.70
77613;DHT22;66777;52.282;5.960;2023-04-30T11:12:28;40.60;27.70
77613;DHT22;66777;52.282;5.960;2023-04-30T11:15:05;40.50;27.80
77613;DHT22;66777;52.282;5.960;2023-04-30T11:17:32;40.60;28.30
77613;DHT22;66777;52.282;5.960;2023-04-30T11:20:00;41.40;27.70
77613;DHT22;66777;52.282;5.960;2023-04-30T11:22:26;40.50;28.00
77613;DHT22;66777;52.282;5.960;2023-04-30T11:25:04;40.50;27.50
77613;DHT22;66777;52.282;5.960;2023-04-30T11:27:32;40.60;27.50
77613;DHT22;66777;52.282;5.960;2023-04-30T11:29:59;41.40;26.50
77613;DHT22;66777;52.282;5.960;2023-04-30T11:32:33;42.20;26.30
77613;DHT22;66777;52.282;5.960;2023-04-30T11:35:01;41.90;25.50
77613;DHT22;66777;52.282;5.960;2023-04-30T11:37:29;41.40;26.60
77613;DHT22;66777;52.282;5.960;2023-04-30T11:39:56;42.00;26.50
77613;DHT22;66777;52.282;5.960;2023-04-30T11:42:24;43.20;26.10
77613;DHT22;66777;52.282;5.960;2023-04-30T11:44:49;43.30;25.70
77613;DHT22;66777;52.282;5.960;2023-04-30T11:47:15;43.50;25.60
77613;DHT22;66777;52.282;5.960;2023-04-30T11:49:42;43.50;25.70
77613;DHT22;66777;52.282;5.960;2023-04-30T11:52:07;44.40;25.20
77613;DHT22;66777;52.282;5.960;2023-04-30T11:54:37;44.40;25.00
77613;DHT22;66777;52.282;5.960;2023-04-30T11:57:03;44.70;24.60
77613;DHT22;66777;52.282;5.960;2023-04-30T11:59:30;44.10;24.90
77613;DHT22;66777;52.282;5.960;2023-04-30T12:01:56;43.90;24.80
77613;DHT22;66777;52.282;5.960;2023-04-30T12:04:23;43.10;24.90
77613;DHT22;66777;52.282;5.960;2023-04-30T12:06:48;42.00;25.10
77613;DHT22;66777;52.282;5.960;2023-04-30T12:09:14;43.10;25.00
77613;DHT22;66777;52.282;5.960;2023-04-30T12:11:40;43.70;24.60
77613;DHT22;66777;52.282;5.960;2023-04-30T12:14:07;44.30;24.40
77613;DHT22;66777;52.282;5.960;2023-04-30T12:16:49;44.60;24.30
77613;DHT22;66777;52.282;5.960;2023-04-30T12:19:19;45.70;23.30
77613;DHT22;66777;52.282;5.960;2023-04-30T12:21:45;45.30;23.50
77613;DHT22;66777;52.282;5.960;2023-04-30T12:24:13;45.30;23.80
77613;DHT22;66777;52.282;5.960;2023-04-30T12:26:40;46.30;23.40
77613;DHT22;66777;52.282;5.960;2023-04-30T12:29:16;46.30;23.30
77613;DHT22;66777;52.282;5.960;2023-04-30T12:31:43;47.00;22.60
77613;DHT22;66777;52.282;5.960;2023-04-30T12:34:13;47.30;22.70
77613;DHT22;66777;52.282;5.960;2023-04-30T12:36:40;46.80;22.80
77613;DHT22;66777;52.282;5.960;2023-04-30T12:39:12;46.00;23.30
77613;DHT22;66777;52.282;5.960;2023-04-30T12:41:49;46.40;23.10
77613;DHT22;66777;52.282;5.960;2023-04-30T12:44:23;45.40;22.70
77613;DHT22;66777;52.282;5.960;2023-04-30T12:46:49;45.80;22.70
77613;DHT22;66777;52.282;5.960;2023-04-30T12:49:22;46.40;22.50
77613;DHT22;66777;52.282;5.960;2023-04-30T12:51:49;46.70;22.50
77613;DHT22;66777;52.282;5.960;2023-04-30T12:54:14;47.30;22.60
77613;DHT22;66777;52.282;5.960;2023-04-30T12:56:56;47.40;22.50
77613;DHT22;66777;52.282;5.960;2023-04-30T12:59:22;47.60;22.20
77613;DHT22;66777;52.282;5.960;2023-04-30T13:01:47;47.90;22.30
77613;DHT22;66777;52.282;5.960;2023-04-30T13:04:13;47.60;22.40
77613;DHT22;66777;52.282;5.960;2023-04-30T13:06:38;47.50;22.40
77613;DHT22;66777;52.282;5.960;2023-04-30T13:09:04;46.90;22.60
77613;DHT22;66777;52.282;5.960;2023-04-30T13:11:29;47.50;22.10
77613;DHT22;66777;52.282;5.960;2023-04-30T13:13:55;47.20;22.40
77613;DHT22;66777;52.282;5.960;2023-04-30T13:16:21;47.60;22.20
77613;DHT22;66777;52.282;5.960;2023-04-30T13:18:47;47.90;21.80
77613;DHT22;66777;52.282;5.960;2023-04-30T13:21:12;46.70;22.60
77613;DHT22;66777;52.282;5.960;2023-04-30T13:23:38;48.00;22.10
77613;DHT22;66777;52.282;5.960;2023-04-30T13:26:03;47.50;22.20
77613;DHT22;66777;52.282;5.960;2023-04-30T13:28:29;46.70;22.30
77613;DHT22;66777;52.282;5.960;2023-04-30T13:30:54;47.40;22.30
77613;DHT22;66777;52.282;5.960;2023-04-30T13:33:20;47.90;22.10
77613;DHT22;66777;52.282;5.960;2023-04-30T13:35:46;49.00;21.60
77613;DHT22;66777;52.282;5.960;2023-04-30T13:38:12;49.20;21.40
77613;DHT22;66777;52.282;5.960;2023-04-30T13:40:37;44.10;23.60
77613;DHT22;66777;52.282;5.960;2023-04-30T13:43:03;44.90;23.40
77613;DHT22;66777;52.282;5.960;2023-04-30T13:45:28;45.50;22.80
77613;DHT22;66777;52.282;5.960;2023-04-30T13:47:54;47.20;22.30
77613;DHT22;66777;52.282;5.960;2023-04-30T13:50:20;48.20;21.90
77613;DHT22;66777;52.282;5.960;2023-04-30T13:52:45;48.80;21.60
77613;DHT22;66777;52.282;5.960;2023-04-30T13:55:11;48.80;21.70
77613;DHT22;66777;52.282;5.960;2023-04-30T13:57:36;49.60;21.20
77613;DHT22;66777;52.282;5.960;2023-04-30T14:00:02;50.00;21.10
77613;DHT22;66777;52.282;5.960;2023-04-30T14:02:28;51.00;20.80
77613;DHT22;66777;52.282;5.960;2023-04-30T14:04:54;50.00;21.00
77613;DHT22;66777;52.282;5.960;2023-04-30T14:07:20;49.50;21.20
77613;DHT22;66777;52.282;5.960;2023-04-30T14:09:45;50.00;21.10
77613;DHT22;66777;52.282;5.960;2023-04-30T14:12:11;50.30;20.90
77613;DHT22;66777;52.282;5.960;2023-04-30T14:14:36;50.80;20.70
77613;DHT22;66777;52.282;5.960;2023-04-30T14:17:02;51.50;20.60
77613;DHT22;66777;52.282;5.960;2023-04-30T14:19:29;50.50;21.00
77613;DHT22;66777;52.282;5.960;2023-04-30T14:21:54;50.50;20.90
77613;DHT22;66777;52.282;5.960;2023-04-30T14:24:20;50.80;20.90
77613;DHT22;66777;52.282;5.960;2023-04-30T14:26:45;50.80;20.80
77613;DHT22;66777;52.282;5.960;2023-04-30T14:29:11;50.60;20.50
77613;DHT22;66777;52.282;5.960;2023-04-30T14:31:37;45.00;22.80
77613;DHT22;66777;52.282;5.960;2023-04-30T14:34:02;39.50;25.30
77613;DHT22;66777;52.282;5.960;2023-04-30T14:36:28;35.10;27.80
77613;DHT22;66777;52.282;5.960;2023-04-30T14:38:54;32.40;29.50
77613;DHT22;66777;52.282;5.960;2023-04-30T14:41:19;31.20;30.80
77613;DHT22;66777;52.282;5.960;2023-04-30T14:43:45;35.50;28.40
77613;DHT22;66777;52.282;5.960;2023-04-30T14:46:11;40.40;25.70
77613;DHT22;66777;52.282;5.960;2023-04-30T14:48:37;43.90;24.00
77613;DHT22;66777;52.282;5.960;2023-04-30T14:51:03;45.90;22.90
77613;DHT22;66777;52.282;5.960;2023-04-30T14:53:28;46.70;22.40
77613;DHT22;66777;52.282;5.960;2023-04-30T14:55:54;47.10;22.30
77613;DHT22;66777;52.282;5.960;2023-04-30T14:58:20;47.10;22.20
77613;DHT22;66777;52.282;5.960;2023-04-30T15:00:45;46.70;22.30
77613;DHT22;66777;52.282;5.960;2023-04-30T15:03:12;44.80;22.90
77613;DHT22;66777;52.282;5.960;2023-04-30T15:05:39;39.60;25.10
77613;DHT22;66777;52.282;5.960;2023-04-30T15:08:05;35.40;27.40
77613;DHT22;66777;52.282;5.960;2023-04-30T15:10:33;35.60;27.80
77613;DHT22;66777;52.282;5.960;2023-04-30T15:13:01;37.30;26.90
77613;DHT22;66777;52.282;5.960;2023-04-30T15:15:27;36.10;27.40
77613;DHT22;66777;52.282;5.960;2023-04-30T15:17:56;33.50;28.90
77613;DHT22;66777;52.282;5.960;2023-04-30T15:20:22;30.70;30.70
77613;DHT22;66777;52.282;5.960;2023-04-30T15:22:49;28.50;32.40
77613;DHT22;66777;52.282;5.960;2023-04-30T15:25:15;28.30;32.70
77613;DHT22;66777;52.282;5.960;2023-04-30T15:27:40;31.50;30.60
77613;DHT22;66777;52.282;5.960;2023-04-30T15:30:06;35.10;28.10
77613;DHT22;66777;52.282;5.960;2023-04-30T15:32:32;38.10;26.40
77613;DHT22;66777;52.282;5.960;2023-04-30T15:34:58;39.80;25.50
77613;DHT22;66777;52.282;5.960;2023-04-30T15:37:23;41.10;24.80
77613;DHT22;66777;52.282;5.960;2023-04-30T15:39:49;41.50;24.60
77613;DHT22;66777;52.282;5.960;2023-04-30T15:42:14;41.50;24.70
77613;DHT22;66777;52.282;5.960;2023-04-30T15:44:40;41.10;25.00
77613;DHT22;66777;52.282;5.960;2023-04-30T15:47:05;41.10;25.00
77613;DHT22;66777;52.282;5.960;2023-04-30T15:49:31;40.80;25.10